North Amity, Maine
Current Conditions -  °F | °C
As of 4:53 PM on Monday 26 Jan 2015 (Local Time) from KHUL Reporting Station
Clear Clear  
Wind Chill: -7°   Ceiling: Unl
Heat Index:   Visibility: 10mi
Dew Point: -11°   Wind: 7mph
Humidity: 48%   Direction: 100°E
Pressure: 30.23"   Gusts: NA
Location:  45.8952°N, 67.8479°W
Report Text: KHUL 262153Z AUTO 10006KT 10SM CLR M15/M24 A3023 RMK AO2 SLP250 T11501239
Loading
Personal Weather Stations






























Interactive Weather Map New forecast layout! Learn more

10-Day Weather Forecast

Advertisements
Track Severe Weather on mobile